Time;durP1;ratioP1;P1;durP2;ratioP2;P2;SDS_P1;SDS_P2;PMS_P1;PMS_P2;Temp;Humidity;BMP_temperature;BMP_pressure;BME280_temperature;BME280_humidity;BME280_pressure;Samples;Min_cycle;Max_cycle;Signal;HPM_P1;HPM_P2
2021/05/11 00:01:27;;;;;;;1.95;0.90;;;;;;;;;;5013637;28;20485;-54
2021/05/11 00:03:53;;;;;;;0.85;0.85;;;;;;;;;;5029621;28;20492;-52
2021/05/11 00:06:19;;;;;;;0.85;0.85;;;;;;;;;;5027200;28;20038;-53
2021/05/11 00:08:45;;;;;;;1.52;0.80;;;;;;;;;;5013048;28;20593;-54
2021/05/11 00:11:12;;;;;;;0.90;0.90;;;;;;;;;;5027454;28;20046;-52
2021/05/11 00:13:38;;;;;;;1.00;1.00;;;;;;;;;;5026886;28;20045;-53
2021/05/11 00:16:04;;;;;;;3.72;0.90;;;;;;;;;;5028288;28;20041;-54
2021/05/11 00:18:33;;;;;;;2.45;0.90;;;;;;;;;;5027806;28;20030;-54
2021/05/11 00:20:59;;;;;;;1.67;0.90;;;;;;;;;;5016542;28;20514;-53
2021/05/11 00:23:25;;;;;;;2.15;0.82;;;;;;;;;;5026903;28;20041;-53
2021/05/11 00:25:52;;;;;;;3.55;0.90;;;;;;;;;;5028312;28;20036;-53
2021/05/11 00:28:18;;;;;;;0.90;0.90;;;;;;;;;;5017107;28;20038;-53
2021/05/11 00:30:44;;;;;;;1.80;0.90;;;;;;;;;;5020939;28;20120;-54
2021/05/11 00:33:11;;;;;;;0.80;0.80;;;;;;;;;;5028867;28;20092;-53
2021/05/11 00:35:37;;;;;;;0.90;0.90;;;;;;;;;;5023607;28;20034;-53
2021/05/11 00:38:03;;;;;;;0.90;0.90;;;;;;;;;;5030946;28;20033;-53
2021/05/11 00:40:29;;;;;;;1.58;0.98;;;;;;;;;;5028438;28;20042;-53
2021/05/11 00:42:56;;;;;;;1.20;0.90;;;;;;;;;;5030292;28;20038;-52
2021/05/11 00:45:22;;;;;;;0.90;0.90;;;;;;;;;;5031813;28;20038;-53
2021/05/11 00:47:48;;;;;;;1.10;1.10;;;;;;;;;;5032129;28;20593;-53
2021/05/11 00:50:14;;;;;;;1.70;1.00;;;;;;;;;;5031166;28;20048;-53
2021/05/11 00:52:41;;;;;;;0.90;0.90;;;;;;;;;;5019243;28;20045;-53
2021/05/11 00:55:09;;;;;;;0.90;0.90;;;;;;;;;;5028034;28;20055;-53
2021/05/11 00:57:35;;;;;;;1.77;1.10;;;;;;;;;;5024785;28;20129;-53
2021/05/11 01:00:04;;;;;;;1.00;1.00;;;;;;;;;;5024092;28;20479;-54
2021/05/11 01:02:30;;;;;;;1.63;1.10;;;;;;;;;;5021524;28;20042;-54
2021/05/11 01:04:56;;;;;;;2.05;1.00;;;;;;;;;;5032627;28;20422;-53
2021/05/11 01:07:23;;;;;;;2.45;1.08;;;;;;;;;;5029495;28;20030;-52
2021/05/11 01:09:49;;;;;;;1.45;1.00;;;;;;;;;;5032901;28;20034;-53
2021/05/11 01:12:16;;;;;;;1.50;1.00;;;;;;;;;;5030881;28;20091;-54
2021/05/11 01:14:42;;;;;;;1.00;1.00;;;;;;;;;;5030784;28;20478;-52
2021/05/11 01:17:15;;;;;;;0.90;0.90;;;;;;;;;;5018397;28;20046;-54
2021/05/11 01:19:47;;;;;;;1.10;1.10;;;;;;;;;;5026167;28;20038;-52
2021/05/11 01:22:28;;;;;;;2.35;1.00;;;;;;;;;;5016924;28;20486;-52
2021/05/11 01:30:08;;;;;;;1.10;1.00;;;;;;;;;;5031802;28;20042;-54
2021/05/11 01:48:57;;;;;;;0.93;0.90;;;;;;;;;;5019694;28;20062;-54
2021/05/11 02:23:52;;;;;;;1.70;1.00;;;;;;;;;;5024471;28;20041;-53
2021/05/11 02:26:19;;;;;;;0.98;0.98;;;;;;;;;;5029831;28;20724;-54
2021/05/11 02:28:46;;;;;;;2.33;1.10;;;;;;;;;;5029414;28;20068;-54
2021/05/11 02:31:12;;;;;;;1.55;1.25;;;;;;;;;;5030423;28;20124;-54
2021/05/11 02:33:39;;;;;;;2.95;1.48;;;;;;;;;;5028615;28;20087;-54
2021/05/11 02:36:05;;;;;;;1.98;1.10;;;;;;;;;;5023576;28;20111;-53
2021/05/11 02:38:31;;;;;;;1.80;1.13;;;;;;;;;;5024191;28;20103;-54
2021/05/11 02:40:58;;;;;;;1.20;1.15;;;;;;;;;;5021984;28;20054;-53
2021/05/11 02:43:29;;;;;;;2.35;1.02;;;;;;;;;;5020286;28;20033;-53
2021/05/11 02:45:55;;;;;;;3.00;1.30;;;;;;;;;;5030732;28;20072;-54
2021/05/11 02:48:21;;;;;;;1.38;1.38;;;;;;;;;;5026101;28;20537;-53
2021/05/11 02:50:47;;;;;;;1.10;1.10;;;;;;;;;;5016238;28;20084;-53
2021/05/11 02:53:14;;;;;;;1.25;1.20;;;;;;;;;;5030183;28;20053;-54
2021/05/11 02:55:40;;;;;;;1.10;1.10;;;;;;;;;;5029051;28;20038;-54
2021/05/11 02:58:06;;;;;;;1.50;1.23;;;;;;;;;;5030750;28;20042;-54
2021/05/11 03:00:33;;;;;;;1.08;1.00;;;;;;;;;;5027220;28;20045;-54
2021/05/11 03:02:59;;;;;;;2.05;0.93;;;;;;;;;;5028808;28;20037;-54
2021/05/11 03:05:25;;;;;;;1.00;1.00;;;;;;;;;;5019762;28;20057;-53
2021/05/11 03:07:52;;;;;;;2.97;1.40;;;;;;;;;;5028095;28;20033;-54
2021/05/11 03:10:19;;;;;;;1.10;1.00;;;;;;;;;;5028939;28;20034;-55
2021/05/11 03:12:46;;;;;;;1.13;1.00;;;;;;;;;;5024015;28;20034;-53
2021/05/11 03:15:12;;;;;;;1.58;1.02;;;;;;;;;;5017289;28;20585;-54
2021/05/11 03:17:39;;;;;;;1.65;1.13;;;;;;;;;;5030063;28;20042;-55
2021/05/11 03:20:06;;;;;;;1.17;1.17;;;;;;;;;;5026913;28;20095;-54
2021/05/11 03:22:33;;;;;;;1.85;1.45;;;;;;;;;;5020632;28;20125;-54
2021/05/11 03:25:00;;;;;;;3.63;1.30;;;;;;;;;;5025825;28;20421;-54
2021/05/11 03:27:26;;;;;;;1.13;1.10;;;;;;;;;;5028850;28;20556;-54
2021/05/11 03:29:52;;;;;;;1.00;1.00;;;;;;;;;;5030113;28;20046;-54
2021/05/11 03:32:18;;;;;;;1.00;1.00;;;;;;;;;;5025285;28;20419;-54
2021/05/11 03:34:45;;;;;;;1.98;1.10;;;;;;;;;;5012226;28;20066;-53
2021/05/11 03:37:11;;;;;;;1.90;1.10;;;;;;;;;;5022885;28;20046;-54
2021/05/11 03:39:39;;;;;;;1.23;1.13;;;;;;;;;;5027365;28;20486;-54
2021/05/11 03:42:29;;;;;;;2.00;1.42;;;;;;;;;;5016824;28;20352;-53
2021/05/11 03:44:59;;;;;;;2.53;1.27;;;;;;;;;;5022112;28;20386;-53
2021/05/11 03:47:27;;;;;;;1.35;1.25;;;;;;;;;;5014329;28;20076;-54
2021/05/11 03:49:54;;;;;;;2.10;1.10;;;;;;;;;;5029714;28;20050;-54
2021/05/11 03:52:21;;;;;;;1.40;1.40;;;;;;;;;;5028802;28;20115;-54
2021/05/11 03:54:47;;;;;;;1.25;1.10;;;;;;;;;;5029715;28;20091;-54
2021/05/11 03:57:14;;;;;;;1.08;1.08;;;;;;;;;;5022181;28;20092;-54
2021/05/11 03:59:41;;;;;;;1.20;1.20;;;;;;;;;;5014677;28;20391;-54
2021/05/11 04:02:08;;;;;;;1.35;1.10;;;;;;;;;;5029379;28;20096;-55
2021/05/11 04:04:36;;;;;;;3.17;1.20;;;;;;;;;;5026681;28;20041;-54
2021/05/11 04:07:04;;;;;;;5.78;1.17;;;;;;;;;;5023106;28;20117;-54
2021/05/11 04:09:41;;;;;;;2.55;2.30;;;;;;;;;;5021701;28;20092;-54
2021/05/11 04:17:33;;;;;;;1.85;1.75;;;;;;;;;;5032063;28;20442;-53
2021/05/11 04:20:00;;;;;;;1.70;1.20;;;;;;;;;;5029993;28;20041;-53
2021/05/11 04:22:27;;;;;;;1.10;1.00;;;;;;;;;;5030339;28;20030;-54
2021/05/11 04:24:55;;;;;;;2.20;1.10;;;;;;;;;;5030136;28;20469;-54
2021/05/11 04:27:22;;;;;;;1.67;1.25;;;;;;;;;;5029141;28;20037;-53
2021/05/11 04:29:51;;;;;;;3.83;1.50;;;;;;;;;;5023538;28;20038;-54
2021/05/11 04:32:18;;;;;;;1.60;1.50;;;;;;;;;;5021872;28;20128;-54
2021/05/11 04:34:45;;;;;;;2.63;1.20;;;;;;;;;;5031878;28;20037;-54
2021/05/11 04:37:12;;;;;;;1.30;1.20;;;;;;;;;;5026587;28;20037;-53
2021/05/11 04:39:38;;;;;;;1.25;1.20;;;;;;;;;;5026454;28;20037;-55
2021/05/11 04:42:06;;;;;;;2.55;1.85;;;;;;;;;;5031445;28;20041;-54
2021/05/11 04:44:33;;;;;;;2.40;1.20;;;;;;;;;;5031245;28;20033;-54
2021/05/11 04:47:08;;;;;;;1.23;1.13;;;;;;;;;;5022945;28;20029;-59
2021/05/11 04:49:35;;;;;;;2.00;1.90;;;;;;;;;;5028210;28;20506;-55
2021/05/11 04:52:02;;;;;;;3.70;1.20;;;;;;;;;;5037556;28;20041;-54
2021/05/11 04:54:34;;;;;;;1.65;1.10;;;;;;;;;;5024178;28;20048;-53
2021/05/11 04:57:00;;;;;;;1.73;1.63;;;;;;;;;;5029351;28;20409;-54
2021/05/11 04:59:27;;;;;;;1.83;1.17;;;;;;;;;;5014740;28;20554;-55
2021/05/11 05:01:56;;;;;;;2.47;1.23;;;;;;;;;;5031634;28;20048;-54
2021/05/11 05:04:23;;;;;;;2.78;1.20;;;;;;;;;;5030649;28;20132;-54
2021/05/11 05:06:53;;;;;;;2.30;1.25;;;;;;;;;;5018630;28;20583;-54
2021/05/11 05:09:19;;;;;;;1.42;1.30;;;;;;;;;;5026710;28;20042;-53
2021/05/11 05:11:46;;;;;;;2.15;1.20;;;;;;;;;;5019482;28;20073;-52
2021/05/11 05:14:13;;;;;;;1.80;1.70;;;;;;;;;;5031266;28;20084;-53
2021/05/11 05:16:39;;;;;;;2.35;1.10;;;;;;;;;;5030669;28;20045;-54
2021/05/11 05:19:06;;;;;;;1.70;1.30;;;;;;;;;;5018752;28;20052;-54
2021/05/11 05:21:34;;;;;;;1.40;1.10;;;;;;;;;;5028508;28;20041;-52
2021/05/11 05:26:37;;;;;;;1.17;1.15;;;;;;;;;;5020400;28;20053;-54
2021/05/11 05:29:04;;;;;;;1.95;1.30;;;;;;;;;;5024270;28;20041;-53
2021/05/11 05:31:33;;;;;;;2.35;2.15;;;;;;;;;;5031040;28;20099;-53
2021/05/11 05:34:01;;;;;;;1.55;1.38;;;;;;;;;;5031327;28;20512;-53
2021/05/11 05:36:27;;;;;;;5.47;5.18;;;;;;;;;;5030442;28;20050;-54
2021/05/11 05:38:56;;;;;;;6.00;5.45;;;;;;;;;;5019928;28;20042;-53
2021/05/11 05:41:24;;;;;;;3.42;3.13;;;;;;;;;;5026449;28;20041;-53
2021/05/11 05:43:51;;;;;;;2.58;1.30;;;;;;;;;;5013590;28;20471;-53
2021/05/11 05:46:18;;;;;;;1.48;1.38;;;;;;;;;;5030080;28;20049;-53
2021/05/11 05:48:45;;;;;;;1.50;1.50;;;;;;;;;;5029969;28;20050;-54
2021/05/11 05:51:13;;;;;;;2.22;1.65;;;;;;;;;;5030937;28;20382;-54
2021/05/11 05:53:41;;;;;;;1.63;1.38;;;;;;;;;;5029331;28;20076;-54
2021/05/11 05:56:08;;;;;;;2.78;1.95;;;;;;;;;;5038714;28;20045;-53
2021/05/11 05:58:35;;;;;;;3.47;1.73;;;;;;;;;;5024699;28;20068;-54
2021/05/11 06:01:05;;;;;;;1.48;1.38;;;;;;;;;;5020287;28;20044;-52
2021/05/11 06:03:36;;;;;;;1.27;1.27;;;;;;;;;;5015292;28;20038;-53
2021/05/11 06:06:04;;;;;;;2.80;1.42;;;;;;;;;;5028792;28;20137;-52
2021/05/11 06:08:31;;;;;;;1.58;1.40;;;;;;;;;;5027295;28;20048;-53
2021/05/11 06:13:41;;;;;;;1.08;1.08;;;;;;;;;;5022965;28;20056;-53
2021/05/11 06:18:54;;;;;;;1.30;1.20;;;;;;;;;;5020070;28;20482;-54
2021/05/11 06:21:20;;;;;;;1.35;1.15;;;;;;;;;;5027896;28;20049;-53
2021/05/11 06:23:47;;;;;;;2.20;1.20;;;;;;;;;;5031317;28;20116;-53
2021/05/11 06:26:14;;;;;;;4.00;1.33;;;;;;;;;;5029149;28;20065;-53
2021/05/11 06:28:43;;;;;;;1.38;1.10;;;;;;;;;;5029749;28;20033;-52
2021/05/11 06:31:10;;;;;;;1.58;1.10;;;;;;;;;;5030180;28;20052;-53
2021/05/11 06:33:37;;;;;;;1.88;1.08;;;;;;;;;;5027244;28;20065;-54
2021/05/11 06:36:04;;;;;;;2.30;1.20;;;;;;;;;;5029769;28;20060;-52
2021/05/11 06:38:32;;;;;;;2.67;1.27;;;;;;;;;;5029577;28;20481;-53
2021/05/11 06:41:00;;;;;;;4.32;1.20;;;;;;;;;;5029535;28;20107;-53
2021/05/11 06:43:32;;;;;;;6.22;1.38;;;;;;;;;;5030582;28;20413;-53
2021/05/11 06:46:13;;;;;;;7.88;1.92;;;;;;;;;;5028701;28;20539;-54
2021/05/11 06:54:06;;;;;;;1.70;1.60;;;;;;;;;;5028269;28;20059;-53
2021/05/11 06:56:33;;;;;;;3.15;2.00;;;;;;;;;;5012403;28;20125;-53
2021/05/11 06:59:00;;;;;;;1.63;1.50;;;;;;;;;;5029058;28;20103;-51
2021/05/11 07:01:26;;;;;;;3.60;2.55;;;;;;;;;;5027750;28;20068;-54
2021/05/11 07:03:53;;;;;;;8.68;2.72;;;;;;;;;;5030712;28;20048;-54
2021/05/11 07:06:20;;;;;;;7.80;2.63;;;;;;;;;;5026204;28;20044;-54
2021/05/11 07:08:52;;;;;;;3.58;2.22;;;;;;;;;;5015394;28;20046;-53
2021/05/11 07:13:47;;;;;;;1.60;1.50;;;;;;;;;;5028435;28;20040;-53
2021/05/11 07:16:14;;;;;;;3.10;1.98;;;;;;;;;;5029515;28;20141;-53
2021/05/11 07:18:41;;;;;;;2.65;1.33;;;;;;;;;;5027037;28;20048;-54
2021/05/11 07:21:08;;;;;;;2.28;1.45;;;;;;;;;;5027671;28;20046;-54
2021/05/11 07:23:35;;;;;;;4.65;1.70;;;;;;;;;;5019328;28;20048;-53
2021/05/11 07:31:26;;;;;;;2.67;2.58;;;;;;;;;;5027496;28;20049;-54
2021/05/11 07:33:54;;;;;;;4.25;1.80;;;;;;;;;;5029555;28;20037;-54
2021/05/11 07:36:21;;;;;;;6.53;2.42;;;;;;;;;;5014131;28;20490;-54
2021/05/11 07:38:48;;;;;;;4.85;2.40;;;;;;;;;;5027239;28;20099;-55
2021/05/11 07:41:15;;;;;;;4.07;2.00;;;;;;;;;;5030079;28;20041;-52
2021/05/11 07:43:45;;;;;;;6.57;2.08;;;;;;;;;;5019362;28;20049;-54
2021/05/11 08:17:32;;;;;;;5.15;1.55;;;;;;;;;;5011467;28;20367;-53
2021/05/11 08:23:00;;;;;;;3.47;1.08;;;;;;;;;;5026189;28;20486;-53
2021/05/11 08:28:12;;;;;;;2.35;0.95;;;;;;;;;;5025101;28;20038;-54
2021/05/11 08:30:39;;;;;;;3.72;1.00;;;;;;;;;;5022016;28;20045;-55
2021/05/11 08:33:06;;;;;;;1.38;1.00;;;;;;;;;;5029516;28;20049;-54
2021/05/11 08:35:33;;;;;;;1.60;0.80;;;;;;;;;;5022348;28;20041;-54
2021/05/11 08:38:00;;;;;;;2.40;0.80;;;;;;;;;;5014833;28;20041;-53
2021/05/11 08:40:28;;;;;;;3.22;0.90;;;;;;;;;;5029678;28;20045;-54
2021/05/11 08:42:55;;;;;;;1.52;0.90;;;;;;;;;;5023663;28;20396;-54
2021/05/11 08:45:22;;;;;;;0.90;0.80;;;;;;;;;;5010992;28;20038;-52
2021/05/11 08:47:54;;;;;;;1.42;1.33;;;;;;;;;;5027501;28;20494;-54
2021/05/11 08:50:37;;;;;;;1.03;0.80;;;;;;;;;;5028253;28;20140;-52
2021/05/11 09:05:10;;;;;;;1.02;0.85;;;;;;;;;;5031912;28;20030;-55
2021/05/11 09:08:11;;;;;;;0.90;0.90;;;;;;;;;;5031009;28;20103;-53
2021/05/11 09:24:53;;;;;;;0.82;0.82;;;;;;;;;;5027059;28;20461;-54
2021/05/11 09:29:48;;;;;;;1.02;0.80;;;;;;;;;;5023279;28;20029;-53
2021/05/11 10:49:33;;;;;;;0.70;0.70;;;;;;;;;;5029477;28;20092;-54
2021/05/11 10:55:24;;;;;;;1.50;1.50;;;;;;;;;;5029461;28;20045;-53
2021/05/11 11:03:12;;;;;;;0.68;0.68;;;;;;;;;;5013754;28;20034;-54
2021/05/11 11:05:40;;;;;;;4.68;0.80;;;;;;;;;;5026949;28;20033;-54
2021/05/11 11:08:27;;;;;;;2.38;1.77;;;;;;;;;;5027899;28;20052;-55
2021/05/11 11:11:07;;;;;;;1.65;0.70;;;;;;;;;;5027194;28;20037;-53
2021/05/11 11:13:34;;;;;;;1.02;0.90;;;;;;;;;;5022547;28;20124;-55
2021/05/11 11:16:01;;;;;;;0.70;0.70;;;;;;;;;;5028075;28;20386;-54
2021/05/11 11:18:28;;;;;;;6.53;0.98;;;;;;;;;;5027056;28;20057;-54
2021/05/11 11:21:20;;;;;;;1.52;0.70;;;;;;;;;;5024119;28;20670;-54
2021/05/11 11:23:52;;;;;;;1.95;0.80;;;;;;;;;;5012226;28;20041;-54
2021/05/11 11:26:29;;;;;;;0.93;0.70;;;;;;;;;;5020681;28;20046;-54
2021/05/11 11:29:02;;;;;;;2.90;1.10;;;;;;;;;;5027062;28;20045;-54
2021/05/11 11:31:32;;;;;;;0.80;0.80;;;;;;;;;;5015219;28;20097;-55
2021/05/11 11:34:19;;;;;;;1.35;0.80;;;;;;;;;;5028689;28;20037;-54
2021/05/11 11:36:47;;;;;;;0.70;0.70;;;;;;;;;;5028267;28;20542;-54
2021/05/11 11:39:23;;;;;;;0.75;0.70;;;;;;;;;;5029588;28;20046;-55
2021/05/11 11:41:51;;;;;;;0.70;0.70;;;;;;;;;;5025813;28;20072;-54
2021/05/11 11:44:20;;;;;;;0.73;0.70;;;;;;;;;;5021524;28;20473;-54
2021/05/11 11:46:50;;;;;;;0.70;0.70;;;;;;;;;;5019455;28;20702;-54
2021/05/11 11:49:19;;;;;;;3.20;0.80;;;;;;;;;;5022045;28;20393;-54
2021/05/11 11:51:56;;;;;;;1.83;0.75;;;;;;;;;;5029730;28;20065;-54
2021/05/11 11:54:32;;;;;;;1.00;1.00;;;;;;;;;;5027850;28;20044;-54
2021/05/11 11:59:33;;;;;;;0.70;0.70;;;;;;;;;;5020184;28;20053;-54
2021/05/11 12:02:01;;;;;;;0.80;0.80;;;;;;;;;;5024669;28;20042;-55
2021/05/11 12:04:30;;;;;;;1.50;0.70;;;;;;;;;;5013387;28;20045;-54
2021/05/11 12:07:05;;;;;;;1.85;1.17;;;;;;;;;;5018100;28;20045;-53
2021/05/11 12:09:32;;;;;;;3.70;1.42;;;;;;;;;;5019472;28;20073;-54
2021/05/11 12:12:00;;;;;;;1.48;0.80;;;;;;;;;;5020785;28;20037;-54
2021/05/11 12:14:27;;;;;;;0.70;0.70;;;;;;;;;;5023522;28;20073;-53
2021/05/11 12:16:54;;;;;;;2.17;0.88;;;;;;;;;;5023896;28;20060;-54
2021/05/11 12:19:31;;;;;;;2.15;0.70;;;;;;;;;;5028707;28;20713;-54
2021/05/11 12:22:00;;;;;;;0.70;0.70;;;;;;;;;;5025665;28;20045;-54
2021/05/11 12:24:28;;;;;;;0.93;0.80;;;;;;;;;;5027621;28;20096;-53
2021/05/11 12:27:11;;;;;;;2.08;0.70;;;;;;;;;;5029387;28;20067;-54
2021/05/11 12:29:38;;;;;;;;;;;;;;;;;;5020379;28;20087;-54
2021/05/11 12:32:05;;;;;;;1.60;0.70;;;;;;;;;;5020071;28;19953;-54
2021/05/11 12:34:32;;;;;;;0.70;0.70;;;;;;;;;;5024719;28;20052;-54
2021/05/11 12:37:00;;;;;;;0.70;0.60;;;;;;;;;;5029054;28;20045;-54
2021/05/11 12:39:49;;;;;;;0.70;0.70;;;;;;;;;;5033278;28;20045;-54
2021/05/11 12:42:20;;;;;;;0.70;0.70;;;;;;;;;;5027265;28;20119;-55
2021/05/11 12:45:00;;;;;;;1.30;0.70;;;;;;;;;;5016286;28;20099;-54
2021/05/11 12:47:27;;;;;;;1.10;0.82;;;;;;;;;;5030393;28;20056;-54
2021/05/11 12:49:56;;;;;;;3.28;0.70;;;;;;;;;;5027988;28;20061;-54
2021/05/11 12:52:27;;;;;;;0.80;0.70;;;;;;;;;;5018880;28;20466;-53
2021/05/11 12:54:54;;;;;;;1.95;0.70;;;;;;;;;;5025188;28;20053;-54
2021/05/11 12:57:31;;;;;;;1.35;0.70;;;;;;;;;;5021955;28;20539;-54
2021/05/11 13:00:01;;;;;;;0.70;0.70;;;;;;;;;;5023281;28;20064;-54
2021/05/11 13:28:01;;;;;;;2.03;1.08;;;;;;;;;;5026836;28;20445;-54
2021/05/11 13:30:43;;;;;;;3.90;1.38;;;;;;;;;;5024187;28;20036;-53
2021/05/11 13:35:56;;;;;;;4.70;1.20;;;;;;;;;;5018358;28;20046;-53
2021/05/11 13:38:23;;;;;;;1.00;0.90;;;;;;;;;;5023533;28;20053;-54
2021/05/11 13:40:50;;;;;;;1.00;1.00;;;;;;;;;;5021548;28;20048;-55
2021/05/11 13:43:19;;;;;;;4.80;1.00;;;;;;;;;;5030317;28;20478;-53
2021/05/11 13:45:46;;;;;;;1.33;1.00;;;;;;;;;;5031419;28;20041;-53
2021/05/11 13:53:21;;;;;;;2.40;1.58;;;;;;;;;;5015982;28;20053;-54
2021/05/11 13:56:15;;;;;;;1.90;1.10;;;;;;;;;;5021782;28;20593;-55
2021/05/11 14:04:01;;;;;;;2.35;1.33;;;;;;;;;;5029599;28;20065;-54
2021/05/11 14:06:28;;;;;;;4.25;1.70;;;;;;;;;;5028095;28;20041;-55
2021/05/11 14:08:55;;;;;;;3.03;1.10;;;;;;;;;;5031848;28;20044;-54
2021/05/11 14:11:22;;;;;;;2.03;1.30;;;;;;;;;;5030099;28;20034;-54
2021/05/11 14:13:49;;;;;;;4.78;1.20;;;;;;;;;;5029995;28;20056;-55
2021/05/11 14:16:16;;;;;;;1.77;1.10;;;;;;;;;;5023369;28;20103;-55
2021/05/11 14:18:43;;;;;;;1.88;1.23;;;;;;;;;;5029403;28;20470;-55
2021/05/11 14:21:10;;;;;;;1.15;1.15;;;;;;;;;;5029833;28;20521;-56
2021/05/11 14:23:36;;;;;;;1.95;1.35;;;;;;;;;;5023912;28;20540;-56
2021/05/11 14:26:03;;;;;;;2.40;1.38;;;;;;;;;;5016612;28;20063;-56
2021/05/11 14:28:30;;;;;;;1.60;1.27;;;;;;;;;;5028738;28;20554;-56
2021/05/11 14:30:57;;;;;;;1.55;1.23;;;;;;;;;;5025311;28;20037;-56
2021/05/11 14:33:24;;;;;;;1.85;1.30;;;;;;;;;;5013381;28;20033;-57
2021/05/11 14:35:51;;;;;;;1.60;1.50;;;;;;;;;;5022578;28;20076;-56
2021/05/11 14:38:18;;;;;;;2.35;1.40;;;;;;;;;;5018404;28;20532;-56
2021/05/11 14:40:45;;;;;;;3.90;1.42;;;;;;;;;;5031428;28;20111;-57
2021/05/11 14:43:11;;;;;;;2.28;1.00;;;;;;;;;;5028155;28;21034;-55
2021/05/11 14:45:39;;;;;;;2.42;1.08;;;;;;;;;;5014233;28;20038;-55
2021/05/11 14:48:06;;;;;;;2.45;0.90;;;;;;;;;;5026101;28;20036;-56
2021/05/11 14:50:32;;;;;;;1.05;1.05;;;;;;;;;;5020677;28;20125;-56
2021/05/11 14:53:00;;;;;;;2.45;1.08;;;;;;;;;;5030442;28;20068;-56
2021/05/11 14:55:27;;;;;;;2.53;1.20;;;;;;;;;;5023892;28;20038;-56
2021/05/11 14:57:54;;;;;;;1.48;1.38;;;;;;;;;;5013642;28;20033;-56
2021/05/11 15:00:24;;;;;;;6.43;1.13;;;;;;;;;;5019154;28;20046;-56
2021/05/11 15:02:51;;;;;;;3.78;1.33;;;;;;;;;;5022193;28;20068;-56
2021/05/11 15:05:18;;;;;;;1.10;1.00;;;;;;;;;;5030315;28;20125;-56
2021/05/11 15:07:48;;;;;;;1.02;1.00;;;;;;;;;;5027602;28;20072;-55
2021/05/11 15:10:15;;;;;;;1.25;0.90;;;;;;;;;;5029268;28;20047;-56
2021/05/11 15:12:43;;;;;;;1.35;0.90;;;;;;;;;;5018330;28;20057;-55
2021/05/11 15:15:10;;;;;;;1.50;0.80;;;;;;;;;;5025579;28;20042;-55
2021/05/11 15:20:04;;;;;;;0.82;0.82;;;;;;;;;;5022508;28;20042;-56
2021/05/11 15:22:33;;;;;;;0.90;0.90;;;;;;;;;;5018087;28;20034;-56
2021/05/11 15:25:01;;;;;;;1.10;1.10;;;;;;;;;;5015858;28;20700;-55
2021/05/11 15:27:28;;;;;;;1.00;0.90;;;;;;;;;;5025003;28;20037;-55
2021/05/11 15:29:58;;;;;;;1.17;1.08;;;;;;;;;;5029163;28;20042;-56
2021/05/11 15:32:42;;;;;;;0.93;0.93;;;;;;;;;;5028583;28;20053;-56
2021/05/11 15:35:13;;;;;;;1.08;1.08;;;;;;;;;;5020019;28;20095;-56
2021/05/11 15:37:40;;;;;;;1.67;1.63;;;;;;;;;;5029697;28;20049;-56
2021/05/11 15:40:08;;;;;;;1.15;1.00;;;;;;;;;;5027865;28;20045;-56
2021/05/11 15:42:36;;;;;;;0.80;0.80;;;;;;;;;;5028152;28;20120;-56
2021/05/11 15:45:03;;;;;;;0.90;0.90;;;;;;;;;;5030004;28;20037;-56
2021/05/11 15:47:30;;;;;;;1.30;1.20;;;;;;;;;;5028425;28;20116;-55
2021/05/11 15:49:57;;;;;;;1.40;0.90;;;;;;;;;;5023395;28;20166;-56
2021/05/11 15:52:24;;;;;;;1.60;1.00;;;;;;;;;;5028454;28;20040;-55
2021/05/11 15:54:51;;;;;;;2.53;1.00;;;;;;;;;;5028017;28;20037;-55
2021/05/11 15:57:18;;;;;;;1.75;1.00;;;;;;;;;;5016139;28;20038;-55
2021/05/11 15:59:44;;;;;;;1.00;1.00;;;;;;;;;;5022741;28;20508;-55
2021/05/11 16:02:11;;;;;;;2.53;1.20;;;;;;;;;;5028192;28;20438;-56
2021/05/11 16:04:39;;;;;;;1.02;0.98;;;;;;;;;;5020768;28;20168;-55
2021/05/11 16:07:06;;;;;;;2.47;0.90;;;;;;;;;;5020807;28;20111;-55
2021/05/11 16:09:33;;;;;;;2.17;0.90;;;;;;;;;;5033610;28;20042;-56
2021/05/11 16:12:03;;;;;;;0.90;0.90;;;;;;;;;;5030745;28;20065;-56
2021/05/11 16:14:29;;;;;;;1.00;1.00;;;;;;;;;;5032268;28;20053;-55
2021/05/11 16:16:56;;;;;;;1.50;1.30;;;;;;;;;;5033406;28;20091;-56
2021/05/11 16:19:23;;;;;;;1.00;1.00;;;;;;;;;;5037756;28;20108;-55
2021/05/11 16:21:50;;;;;;;4.80;1.20;;;;;;;;;;5017004;28;20050;-56
2021/05/11 16:24:17;;;;;;;3.55;1.10;;;;;;;;;;5027362;28;20100;-54
2021/05/11 16:26:44;;;;;;;0.98;0.98;;;;;;;;;;5017105;28;20038;-55
2021/05/11 16:29:11;;;;;;;1.25;1.10;;;;;;;;;;5033187;28;20045;-54
2021/05/11 16:31:38;;;;;;;2.17;1.00;;;;;;;;;;5031528;28;20124;-55
2021/05/11 16:34:07;;;;;;;0.93;0.93;;;;;;;;;;5022927;28;20092;-55
2021/05/11 16:36:34;;;;;;;1.48;1.02;;;;;;;;;;5029517;28;20103;-54
2021/05/11 16:39:01;;;;;;;2.72;1.15;;;;;;;;;;5031656;28;20041;-55
2021/05/11 16:41:29;;;;;;;0.80;0.80;;;;;;;;;;5030698;28;20519;-54
2021/05/11 16:43:58;;;;;;;0.90;0.90;;;;;;;;;;5031231;28;20045;-55
2021/05/11 16:46:24;;;;;;;2.35;1.70;;;;;;;;;;5032169;28;20034;-54
2021/05/11 16:48:51;;;;;;;1.10;1.08;;;;;;;;;;5024459;28;20200;-55
2021/05/11 16:51:18;;;;;;;1.42;1.25;;;;;;;;;;5020844;28;20083;-54
2021/05/11 16:53:44;;;;;;;0.90;0.90;;;;;;;;;;5032762;28;20067;-55
2021/05/11 16:56:11;;;;;;;1.23;0.80;;;;;;;;;;5027756;28;20041;-55
2021/05/11 16:58:38;;;;;;;0.90;0.90;;;;;;;;;;5016422;28;20043;-55
2021/05/11 17:01:05;;;;;;;0.98;0.98;;;;;;;;;;5032634;28;20034;-55
2021/05/11 17:03:32;;;;;;;0.85;0.85;;;;;;;;;;5023777;28;20069;-56
2021/05/11 17:05:59;;;;;;;1.00;1.00;;;;;;;;;;5022022;28;20042;-55
2021/05/11 17:08:26;;;;;;;1.58;0.93;;;;;;;;;;5028380;28;20102;-55
2021/05/11 17:10:52;;;;;;;1.10;1.10;;;;;;;;;;5031797;28;20490;-55
2021/05/11 17:13:19;;;;;;;0.98;0.98;;;;;;;;;;5021408;28;20096;-55
2021/05/11 17:15:46;;;;;;;1.00;1.00;;;;;;;;;;5022571;28;20507;-55
2021/05/11 17:18:13;;;;;;;1.48;1.42;;;;;;;;;;5016186;28;20524;-53
2021/05/11 17:20:41;;;;;;;1.40;1.30;;;;;;;;;;5027490;28;20133;-55
2021/05/11 17:23:09;;;;;;;0.80;0.80;;;;;;;;;;5031483;28;20524;-55
2021/05/11 17:25:37;;;;;;;0.70;0.70;;;;;;;;;;5021074;28;20038;-55
2021/05/11 17:28:05;;;;;;;3.13;1.00;;;;;;;;;;5025094;28;20121;-55
2021/05/11 17:30:33;;;;;;;1.00;0.95;;;;;;;;;;5031941;28;20414;-55
2021/05/11 17:33:02;;;;;;;0.90;0.90;;;;;;;;;;5030152;28;20083;-55
2021/05/11 17:35:29;;;;;;;2.78;1.40;;;;;;;;;;5029434;28;20505;-55
2021/05/11 17:37:57;;;;;;;1.13;1.10;;;;;;;;;;5018954;28;20044;-55
2021/05/11 17:40:28;;;;;;;1.88;0.90;;;;;;;;;;5026456;28;20709;-56
2021/05/11 17:42:57;;;;;;;4.78;1.30;;;;;;;;;;5015137;28;20049;-55
2021/05/11 17:45:25;;;;;;;0.93;0.90;;;;;;;;;;5022715;28;20097;-55
2021/05/11 17:47:58;;;;;;;0.80;0.80;;;;;;;;;;5017992;28;20045;-55
2021/05/11 17:50:29;;;;;;;2.08;0.90;;;;;;;;;;5023398;28;20054;-55
2021/05/11 17:52:58;;;;;;;1.23;0.82;;;;;;;;;;5027119;28;20046;-53
2021/05/11 17:55:25;;;;;;;1.48;0.80;;;;;;;;;;5028958;28;20051;-54
2021/05/11 17:57:52;;;;;;;0.95;0.95;;;;;;;;;;5033405;28;20095;-55
2021/05/11 18:00:20;;;;;;;1.95;1.65;;;;;;;;;;5034797;28;20045;-53
2021/05/11 18:02:49;;;;;;;0.80;0.80;;;;;;;;;;5026512;28;20037;-54
2021/05/11 18:05:16;;;;;;;3.53;0.90;;;;;;;;;;5029296;28;20398;-54
2021/05/11 18:07:43;;;;;;;0.90;0.90;;;;;;;;;;5018830;28;20029;-54
2021/05/11 18:10:10;;;;;;;5.13;1.88;;;;;;;;;;5029923;28;20046;-53
2021/05/11 18:12:37;;;;;;;0.90;0.90;;;;;;;;;;5028370;28;20037;-52
2021/05/11 18:15:05;;;;;;;1.05;1.05;;;;;;;;;;5030947;28;20087;-52
2021/05/11 18:17:32;;;;;;;0.90;0.90;;;;;;;;;;5030313;28;20781;-54
2021/05/11 18:19:58;;;;;;;0.90;0.90;;;;;;;;;;5023723;28;20046;-55
2021/05/11 18:22:27;;;;;;;0.95;0.88;;;;;;;;;;5025225;28;20099;-55
2021/05/11 18:24:53;;;;;;;1.55;0.80;;;;;;;;;;5029315;28;20064;-53
2021/05/11 18:27:25;;;;;;;0.90;0.90;;;;;;;;;;5013163;28;20029;-54
2021/05/11 18:29:57;;;;;;;0.70;0.70;;;;;;;;;;5029102;28;20533;-54
2021/05/11 18:32:31;;;;;;;3.22;0.70;;;;;;;;;;5042421;28;20045;-52
2021/05/11 18:35:04;;;;;;;;;;;;;;;;;;5025380;28;20030;-54
2021/05/11 18:39:59;;;;;;;2.10;0.70;;;;;;;;;;5029683;28;20099;-54
2021/05/11 18:42:28;;;;;;;2.38;0.90;;;;;;;;;;5025500;28;20049;-54
2021/05/11 18:44:56;;;;;;;0.70;0.70;;;;;;;;;;5032818;28;20136;-52
2021/05/11 18:47:23;;;;;;;0.80;0.80;;;;;;;;;;5014200;28;20041;-54
2021/05/11 18:49:50;;;;;;;0.80;0.80;;;;;;;;;;5032643;28;20052;-53
2021/05/11 18:52:17;;;;;;;1.20;0.80;;;;;;;;;;5031576;28;20056;-52
2021/05/11 18:54:49;;;;;;;0.80;0.80;;;;;;;;;;5019214;28;20065;-52
2021/05/11 18:57:17;;;;;;;1.42;0.80;;;;;;;;;;5027114;28;20286;-52
2021/05/11 18:59:45;;;;;;;0.85;0.70;;;;;;;;;;5027564;28;20057;-54
2021/05/11 19:02:12;;;;;;;0.80;0.80;;;;;;;;;;5029907;28;20073;-53
2021/05/11 19:04:40;;;;;;;0.80;0.80;;;;;;;;;;5027524;28;20099;-50
2021/05/11 19:07:07;;;;;;;5.30;2.00;;;;;;;;;;5027381;28;20056;-53
2021/05/11 19:09:34;;;;;;;1.92;1.10;;;;;;;;;;5029699;28;20527;-52
2021/05/11 19:12:02;;;;;;;1.80;1.25;;;;;;;;;;5028845;28;20049;-52
2021/05/11 19:14:29;;;;;;;1.00;1.00;;;;;;;;;;5019274;28;20042;-53
2021/05/11 19:16:56;;;;;;;0.88;0.88;;;;;;;;;;5024023;28;20567;-53
2021/05/11 19:19:26;;;;;;;1.10;1.00;;;;;;;;;;5028716;28;20042;-53
2021/05/11 19:21:54;;;;;;;3.70;1.00;;;;;;;;;;4991171;28;20034;-52
2021/05/11 19:24:22;;;;;;;3.63;0.93;;;;;;;;;;5027197;28;20730;-53
2021/05/11 19:26:50;;;;;;;4.13;0.90;;;;;;;;;;5017963;28;20034;-53
2021/05/11 19:29:18;;;;;;;2.05;1.00;;;;;;;;;;5016753;28;20156;-53